Time;durP1;ratioP1;P1;durP2;ratioP2;P2;SDS_P1;SDS_P2;PMS_P1;PMS_P2;Temp;Humidity;BMP_temperature;BMP_pressure;BME280_temperature;BME280_humidity;BME280_pressure;Samples;Min_cycle;Max_cycle;Signal;HPM_P1;HPM_P2
2024/02/12 00:00:18;;;;;;;4.80;4.07;;;7.40;89.70;;;6.73;87.67;96235.50;5047024;28;20898;-69
2024/02/12 00:02:46;;;;;;;5.53;2.13;;;7.40;89.50;;;6.71;87.86;96245.66;5066287;28;20462;-69
2024/02/12 00:05:14;;;;;;;3.80;1.83;;;7.40;89.40;;;6.73;88.06;96262.34;5047910;28;20457;-69
2024/02/12 00:07:43;;;;;;;4.00;2.40;;;7.30;89.20;;;6.61;88.06;96257.00;5066748;28;20561;-70
2024/02/12 00:10:12;;;;;;;2.33;1.90;;;7.30;89.20;;;6.47;88.88;96253.75;5063037;28;20465;-68
2024/02/12 00:12:40;;;;;;;1.50;1.40;;;7.20;89.50;;;6.36;89.52;96255.34;5062374;28;20456;-68
2024/02/12 00:15:11;;;;;;;2.57;1.90;;;7.10;90.00;;;6.26;89.98;96251.59;5062349;28;20472;-69
2024/02/12 00:17:40;;;;;;;2.23;2.00;;;7.00;90.10;;;6.12;90.66;96257.16;5041060;28;20510;-68
2024/02/12 00:20:12;;;;;;;2.30;2.10;;;6.90;90.40;;;6.15;91.40;96247.84;5060046;28;20493;-68
2024/02/12 00:22:40;;;;;;;2.47;2.23;;;6.80;90.60;;;6.21;90.61;96258.47;5064418;28;20479;-68
2024/02/12 00:25:12;;;;;;;1.60;1.50;;;6.80;90.70;;;6.07;91.26;96255.19;5058632;28;20460;-68
2024/02/12 00:27:39;;;;;;;1.90;1.80;;;6.80;90.80;;;6.22;91.22;96259.31;5062264;28;20510;-69
2024/02/12 00:30:09;;;;;;;2.43;2.00;;;6.80;91.00;;;6.11;90.53;96233.28;5066147;28;20452;-69
2024/02/12 00:32:37;;;;;;;4.77;1.70;;;6.90;90.80;;;5.90;90.42;96196.03;5063384;28;20507;-68
2024/02/12 00:35:05;;;;;;;1.87;1.77;;;6.90;90.60;;;6.36;90.39;96267.94;5064015;28;20448;-69
2024/02/12 00:37:34;;;;;;;2.60;1.93;;;7.00;90.60;;;6.37;89.92;96258.84;5031968;28;20970;-69
2024/02/12 00:40:08;;;;;;;2.20;2.00;;;7.00;90.30;;;6.47;89.07;96259.09;5049847;28;20537;-68
2024/02/12 00:42:39;;;;;;;1.90;1.60;;;7.10;90.20;;;6.47;89.04;96269.84;5067512;28;21189;-69
2024/02/12 00:45:09;;;;;;;1.90;1.70;;;7.10;90.10;;;6.44;89.54;96256.84;5044415;28;20542;-69
2024/02/12 00:47:37;;;;;;;2.63;1.63;;;7.10;90.20;;;6.31;89.32;96257.09;5061930;28;20454;-68
2024/02/12 00:50:06;;;;;;;2.00;1.60;;;7.10;90.00;;;6.47;89.17;96269.84;5045314;28;20456;-68
2024/02/12 00:52:37;;;;;;;2.30;1.47;;;7.20;89.80;;;6.52;88.54;96274.47;5065147;28;20463;-68
2024/02/12 00:55:08;;;;;;;2.13;1.27;;;7.20;89.50;;;6.51;88.29;96271.00;5067076;28;20448;-68
2024/02/12 00:57:36;;;;;;;1.80;1.40;;;7.20;89.50;;;6.41;89.00;96264.56;5044688;28;20453;-68
2024/02/12 01:00:12;;;;;;;4.57;1.17;;;7.20;89.30;;;6.41;88.55;96265.38;5049155;28;20483;-68
2024/02/12 01:02:40;;;;;;;2.30;1.20;;;7.20;89.30;;;6.46;88.71;96270.06;5066852;28;20980;-68
2024/02/12 01:05:09;;;;;;;1.80;1.13;;;7.20;89.60;;;6.71;87.19;96269.81;5047219;28;20957;-69
2024/02/12 01:07:36;;;;;;;1.70;1.07;;;7.30;89.00;;;6.76;86.60;96278.03;5050573;28;20824;-68
2024/02/12 01:10:06;;;;;;;1.30;1.20;;;7.30;88.60;;;6.60;86.85;96257.25;5062847;28;20507;-68
2024/02/12 01:12:35;;;;;;;3.90;0.97;;;7.30;88.60;;;6.69;86.99;96271.13;5048486;28;20452;-69
2024/02/12 01:15:05;;;;;;;3.23;1.13;;;7.30;88.60;;;6.63;86.92;96273.69;5066387;28;20460;-67
2024/02/12 01:17:33;;;;;;;1.43;1.23;;;7.20;88.70;;;6.61;86.98;96274.97;5067018;28;20443;-68
2024/02/12 01:20:00;;;;;;;2.00;1.03;;;7.20;88.60;;;6.55;87.72;96281.25;5065698;28;20469;-68
2024/02/12 01:22:27;;;;;;;1.20;1.10;;;7.10;88.90;;;6.41;88.09;96281.47;5064537;28;20472;-67
2024/02/12 01:24:55;;;;;;;1.50;1.40;;;7.00;89.20;;;6.33;88.67;96263.06;5065131;28;20456;-68
2024/02/12 01:27:23;;;;;;;2.63;1.23;;;7.00;89.90;;;6.47;87.95;96272.53;5046990;28;20456;-67
2024/02/12 01:29:52;;;;;;;1.93;1.37;;;7.00;89.90;;;6.60;87.64;96274.16;5054939;28;20505;-68
2024/02/12 01:32:22;;;;;;;1.10;0.80;;;7.10;89.60;;;6.54;87.63;96276.94;5055369;28;20516;-68
2024/02/12 01:34:50;;;;;;;1.70;1.20;;;7.20;88.90;;;6.65;87.51;96282.31;5056210;28;20547;-68
2024/02/12 01:37:17;;;;;;;1.43;1.33;;;7.20;89.30;;;6.53;87.57;96278.81;5037199;28;20960;-70
2024/02/12 01:39:45;;;;;;;1.30;1.20;;;7.20;89.00;;;6.42;88.01;96277.75;5062881;28;20541;-69
2024/02/12 01:42:13;;;;;;;1.60;1.40;;;7.10;89.00;;;6.65;87.75;96274.25;5064669;28;20445;-68
2024/02/12 01:44:55;;;;;;;1.63;1.23;;;7.20;89.50;;;6.63;87.38;96283.63;5061317;28;20521;-70
2024/02/12 01:47:24;;;;;;;1.77;1.10;;;7.20;89.30;;;6.56;87.91;96275.66;5064246;28;20460;-68
2024/02/12 01:49:55;;;;;;;1.33;1.10;;;7.20;89.20;;;6.57;87.37;96273.78;5047450;28;20457;-68
2024/02/12 01:52:23;;;;;;;2.20;1.20;;;7.20;89.10;;;6.48;88.39;96271.47;5048289;28;20448;-68
2024/02/12 01:54:52;;;;;;;1.63;1.30;;;7.20;89.10;;;6.61;87.82;96277.66;5065853;28;20460;-68
2024/02/12 01:57:20;;;;;;;1.20;0.97;;;7.20;89.10;;;6.68;87.98;96275.66;5060978;28;20462;-70
2024/02/12 01:59:48;;;;;;;1.30;1.20;;;7.20;89.20;;;6.50;88.00;96264.00;5055723;28;20479;-68
2024/02/12 02:02:15;;;;;;;1.17;1.10;;;7.20;89.40;;;6.42;88.55;96272.38;5053976;28;20832;-67
2024/02/12 02:04:47;;;;;;;1.23;1.13;;;7.20;89.10;;;6.40;89.00;96263.75;5058303;28;20474;-68
2024/02/12 02:07:20;;;;;;;1.40;1.30;;;7.20;89.60;;;6.55;89.41;96270.53;5058663;28;20445;-69
2024/02/12 02:09:47;;;;;;;1.80;1.30;;;7.20;89.90;;;6.58;89.29;96267.38;5055018;28;20903;-68
2024/02/12 02:12:15;;;;;;;2.60;1.00;;;7.20;90.00;;;6.53;89.99;96273.47;5056595;28;20460;-68
2024/02/12 02:14:44;;;;;;;2.00;1.10;;;7.20;90.20;;;6.51;89.75;96276.38;5060845;28;20445;-68
2024/02/12 02:17:13;;;;;;;1.10;1.00;;;7.20;90.10;;;6.58;89.48;96275.41;5057811;28;20472;-68
2024/02/12 02:19:42;;;;;;;2.00;1.47;;;7.20;90.20;;;6.58;90.26;96280.78;5044459;28;20479;-69
2024/02/12 02:22:11;;;;;;;2.30;1.10;;;7.20;90.20;;;6.49;89.47;96283.00;5054451;28;20465;-69
2024/02/12 02:24:40;;;;;;;2.10;1.03;;;7.20;90.10;;;6.67;89.19;96279.41;5061023;28;20463;-69
2024/02/12 02:27:09;;;;;;;1.83;1.20;;;7.20;90.20;;;6.59;89.03;96271.69;5056652;28;20506;-68
2024/02/12 02:29:37;;;;;;;4.83;1.63;;;7.20;90.10;;;6.66;89.04;96278.56;5042038;28;20539;-69
2024/02/12 02:32:06;;;;;;;2.50;1.50;;;7.30;90.00;;;6.61;89.56;96277.66;5039233;28;20509;-69
2024/02/12 02:34:33;;;;;;;3.20;1.37;;;7.30;90.20;;;6.52;89.93;96271.78;5060338;28;20533;-69
2024/02/12 02:37:00;;;;;;;3.63;2.30;;;7.20;90.20;;;6.51;90.19;96281.72;5056103;28;20529;-68
2024/02/12 02:39:28;;;;;;;1.43;1.33;;;7.20;90.30;;;6.55;90.29;96267.84;5041876;28;20505;-69
2024/02/12 02:41:57;;;;;;;1.50;1.23;;;7.20;90.30;;;6.64;89.76;96279.88;5058549;28;20455;-69
2024/02/12 02:44:24;;;;;;;3.57;1.80;;;7.20;90.40;;;6.65;89.31;96281.50;5064559;28;20956;-69
2024/02/12 02:46:51;;;;;;;3.27;1.77;;;7.20;90.30;;;6.63;89.23;96283.63;5050974;28;20453;-69
2024/02/12 02:49:19;;;;;;;2.80;1.67;;;7.30;90.00;;;6.57;89.83;96281.84;5051665;28;20458;-68
2024/02/12 02:51:46;;;;;;;1.80;1.47;;;7.20;90.20;;;6.58;89.86;96276.25;5063398;28;20460;-68
2024/02/12 02:54:14;;;;;;;2.00;1.77;;;7.30;90.10;;;6.82;88.20;96270.06;5062658;28;20446;-68
2024/02/12 02:56:41;;;;;;;2.33;1.47;;;7.30;90.10;;;6.76;88.75;96286.06;5063837;28;20832;-69
2024/02/12 02:59:10;;;;;;;2.27;1.80;;;7.30;90.00;;;6.55;89.85;96279.41;5050339;28;20465;-67
2024/02/12 03:01:38;;;;;;;1.83;1.73;;;7.30;90.10;;;6.53;90.58;96284.19;5069044;28;20459;-67
2024/02/12 03:04:05;;;;;;;4.47;1.83;;;7.20;90.30;;;6.54;90.47;96280.47;5064480;28;20464;-67
2024/02/12 03:06:32;;;;;;;2.00;1.77;;;7.20;90.60;;;6.54;90.39;96285.00;5062804;28;20474;-67
2024/02/12 03:09:02;;;;;;;2.07;1.87;;;7.20;90.60;;;6.42;91.39;96283.09;5058421;28;20939;-67
2024/02/12 03:11:31;;;;;;;2.63;2.07;;;7.10;90.80;;;6.50;91.20;96287.31;5043276;28;20459;-68
2024/02/12 03:13:58;;;;;;;3.37;1.63;;;7.10;90.80;;;6.43;90.98;96281.25;5068345;28;20456;-69
2024/02/12 03:16:27;;;;;;;1.90;1.40;;;7.10;90.70;;;6.37;91.74;96281.16;5067707;28;20463;-69
2024/02/12 03:18:55;;;;;;;3.53;2.00;;;7.10;90.90;;;6.33;92.06;96285.31;5058785;28;20442;-69
2024/02/12 03:21:23;;;;;;;1.90;1.73;;;7.10;90.90;;;6.48;91.10;96273.31;5069134;28;20545;-69
2024/02/12 03:23:53;;;;;;;3.50;1.93;;;7.10;91.10;;;6.52;90.34;96283.34;5050055;28;20452;-69
2024/02/12 03:26:21;;;;;;;3.10;2.03;;;7.10;90.80;;;6.37;91.09;96281.16;5067142;28;20458;-70
2024/02/12 03:28:51;;;;;;;2.37;1.70;;;7.10;90.80;;;6.26;91.70;96278.41;5042420;28;20453;-69
2024/02/12 03:31:19;;;;;;;1.77;1.67;;;7.00;90.80;;;6.22;91.87;96278.88;5052163;28;20456;-69
2024/02/12 03:33:49;;;;;;;3.77;1.53;;;7.00;90.80;;;6.30;91.70;96295.72;5063164;28;20472;-68
2024/02/12 03:36:16;;;;;;;3.00;1.50;;;7.00;90.90;;;6.27;91.57;96293.47;5065163;28;20459;-69
2024/02/12 03:38:44;;;;;;;2.30;1.90;;;7.00;90.90;;;6.35;91.60;96303.88;5038738;28;21216;-68
2024/02/12 03:41:24;;;;;;;1.60;1.50;;;7.00;90.90;;;6.30;92.26;96301.06;5059761;28;20480;-69
2024/02/12 03:43:52;;;;;;;3.97;1.77;;;7.00;91.00;;;6.36;92.11;96305.50;5057491;28;20444;-68
2024/02/12 03:46:20;;;;;;;4.97;1.80;;;7.00;91.20;;;6.31;93.06;96298.13;5043275;28;21098;-68
2024/02/12 03:59:53;;;;;;;1.70;1.47;;;6.90;92.40;;;6.29;93.95;96310.13;5049670;28;20529;-68
2024/02/12 04:02:21;;;;;;;4.13;1.60;;;7.00;92.30;;;6.24;94.06;96308.16;5067246;28;20472;-68
2024/02/12 04:04:50;;;;;;;2.30;2.10;;;6.90;92.20;;;6.22;93.83;96316.44;5067205;28;21046;-67
2024/02/12 04:07:19;;;;;;;2.97;1.60;;;6.90;92.10;;;6.29;93.41;96310.97;5043761;28;20457;-68
2024/02/12 04:09:46;;;;;;;2.77;1.60;;;7.00;92.10;;;6.29;92.99;96312.81;5064201;28;20483;-68
2024/02/12 04:12:13;;;;;;;5.77;2.20;;;7.00;91.80;;;6.33;93.45;96320.19;5048760;28;20489;-68
2024/02/12 04:14:42;;;;;;;2.57;1.83;;;7.00;91.90;;;6.31;93.37;96322.28;5041584;28;20456;-68
2024/02/12 04:17:10;;;;;;;1.50;1.40;;;7.00;91.70;;;6.26;92.44;96319.47;5065519;28;20475;-69
2024/02/12 04:19:38;;;;;;;3.53;1.83;;;7.00;91.20;;;6.40;91.59;96322.75;5039367;28;20477;-69
2024/02/12 04:22:09;;;;;;;3.10;1.80;;;7.10;91.00;;;6.44;90.83;96318.56;5048868;28;20970;-69
2024/02/12 04:24:39;;;;;;;2.20;1.33;;;7.20;91.00;;;6.34;91.63;96323.69;5060439;28;20940;-70
2024/02/12 04:27:11;;;;;;;1.80;1.60;;;7.10;90.80;;;6.43;91.43;96326.88;5065252;28;20455;-69
2024/02/12 04:29:39;;;;;;;2.67;1.33;;;7.10;90.90;;;6.51;90.99;96334.56;5053243;28;21132;-67
2024/02/12 04:32:11;;;;;;;1.67;1.33;;;7.10;90.70;;;6.49;89.70;96332.13;5062710;28;20451;-68
2024/02/12 04:34:38;;;;;;;2.10;1.23;;;7.20;90.40;;;6.61;89.79;96339.38;5041182;28;20483;-67
2024/02/12 04:37:10;;;;;;;2.30;1.50;;;7.20;90.30;;;6.20;90.04;96285.53;5065980;28;20451;-69
2024/02/12 04:39:38;;;;;;;2.30;1.57;;;7.20;90.30;;;6.52;89.85;96339.72;5056921;28;20449;-68
2024/02/12 04:42:06;;;;;;;2.80;1.40;;;7.20;90.20;;;6.44;90.57;96340.03;5067984;28;20468;-68
2024/02/12 04:44:33;;;;;;;4.23;1.40;;;7.20;90.40;;;6.47;90.59;96344.97;5066266;28;20464;-68
2024/02/12 04:47:04;;;;;;;2.17;1.40;;;7.20;90.40;;;6.44;91.20;96344.59;5045404;28;20503;-68
2024/02/12 04:49:32;;;;;;;1.30;1.20;;;7.20;90.70;;;6.27;91.85;96345.25;5048223;28;20448;-67
2024/02/12 04:52:00;;;;;;;2.20;1.20;;;7.10;90.60;;;6.47;91.92;96350.31;5063640;28;20457;-67
2024/02/12 04:54:29;;;;;;;1.47;1.20;;;7.10;91.00;;;6.61;90.48;96355.50;5037921;28;20451;-68
2024/02/12 04:56:57;;;;;;;0.83;0.83;;;7.20;90.80;;;6.52;91.15;96358.50;5064885;28;21113;-67
2024/02/12 04:59:26;;;;;;;3.80;1.63;;;7.20;90.90;;;6.44;92.08;96350.75;5053858;28;20452;-67
2024/02/12 05:01:55;;;;;;;1.93;1.57;;;7.20;90.90;;;6.60;90.85;96367.28;5046242;28;21031;-69
2024/02/12 05:04:24;;;;;;;2.20;1.00;;;7.20;90.80;;;6.58;91.10;96358.59;5064327;28;20535;-68
2024/02/12 05:06:52;;;;;;;2.23;1.40;;;7.30;90.80;;;6.50;91.18;96360.59;5048855;28;20521;-68
2024/02/12 05:09:21;;;;;;;2.13;1.50;;;7.20;90.90;;;6.60;91.61;96361.91;5042305;28;20961;-68
2024/02/12 05:11:50;;;;;;;1.70;1.50;;;7.20;91.10;;;6.63;91.21;96359.56;5066913;28;20538;-68
2024/02/12 05:14:23;;;;;;;1.43;1.30;;;7.30;91.10;;;6.50;92.84;96365.13;5059308;28;20465;-70
2024/02/12 05:16:51;;;;;;;2.43;1.00;;;7.20;91.20;;;6.57;92.23;96365.03;5064270;28;20452;-68
2024/02/12 05:24:47;;;;;;;2.40;2.20;;;7.30;91.40;;;6.41;90.94;96321.72;5064950;28;20453;-69
2024/02/12 05:27:17;;;;;;;2.70;1.00;;;7.30;91.00;;;6.68;91.22;96374.97;5066363;28;20467;-69
2024/02/12 05:29:49;;;;;;;1.00;0.90;;;7.40;90.90;;;6.52;92.37;96366.53;5041364;28;20824;-68
2024/02/12 05:32:16;;;;;;;1.70;1.40;;;7.30;91.20;;;6.50;93.06;96370.50;5064354;28;20448;-68
2024/02/12 05:34:43;;;;;;;2.30;1.30;;;7.30;91.40;;;6.72;92.05;96384.19;5058937;28;20456;-70
2024/02/12 05:37:12;;;;;;;5.23;1.50;;;7.30;91.50;;;6.73;91.65;96369.72;5061221;28;20444;-67
2024/02/12 05:39:40;;;;;;;1.50;1.40;;;7.40;91.30;;;6.71;91.57;96379.06;5070434;28;20460;-68
2024/02/12 05:42:08;;;;;;;3.03;1.20;;;7.40;91.30;;;6.79;92.10;96390.28;5064576;28;21049;-70
2024/02/12 05:44:36;;;;;;;1.40;1.30;;;7.40;91.40;;;6.62;93.34;96374.03;5065963;28;20803;-69
2024/02/12 05:47:06;;;;;;;1.63;1.30;;;7.40;91.70;;;6.44;95.70;96382.97;5041214;28;20728;-68
2024/02/12 05:49:34;;;;;;;2.20;1.43;;;7.30;92.60;;;6.24;97.31;96386.75;5056081;28;20890;-68
2024/02/12 05:52:03;;;;;;;3.47;1.57;;;7.10;93.50;;;6.17;97.34;96361.91;5047293;28;20933;-68
2024/02/12 05:54:31;;;;;;;3.33;1.67;;;7.10;93.80;;;6.37;97.49;96352.75;5055493;28;21090;-68
2024/02/12 05:57:01;;;;;;;1.77;1.47;;;7.20;94.80;;;6.55;96.43;96389.44;5041238;28;20459;-68
2024/02/12 05:59:32;;;;;;;2.00;1.37;;;7.20;93.80;;;6.33;97.39;96386.44;5047451;28;20444;-68
2024/02/12 06:02:02;;;;;;;1.87;1.67;;;7.20;93.90;;;6.31;98.23;96396.59;5055415;28;20469;-69
2024/02/12 06:04:30;;;;;;;4.30;1.83;;;7.10;94.30;;;6.55;97.82;96396.66;5057022;28;20456;-77
2024/02/12 06:06:58;;;;;;;2.27;1.70;;;7.10;94.80;;;6.48;97.04;96394.06;5058214;28;20456;-67
2024/02/12 06:09:26;;;;;;;1.40;1.30;;;7.20;94.20;;;5.95;97.79;96342.78;5039959;28;20449;-71
2024/02/12 06:11:54;;;;;;;6.10;1.23;;;7.10;94.30;;;6.41;97.92;96404.88;5043028;28;20492;-70
2024/02/12 06:14:22;;;;;;;2.07;1.47;;;7.10;94.50;;;6.40;97.44;96413.97;5058866;28;20460;-72
2024/02/12 06:16:49;;;;;;;1.40;1.30;;;7.10;94.10;;;6.57;97.19;96418.69;5039326;28;20456;-69
2024/02/12 06:19:18;;;;;;;1.50;1.40;;;7.20;94.50;;;6.55;96.31;96410.06;5058731;28;20470;-68
2024/02/12 06:21:46;;;;;;;2.40;1.70;;;7.20;94.00;;;6.55;96.78;96412.75;5044176;28;20479;-67
2024/02/12 06:24:13;;;;;;;1.70;1.60;;;7.20;93.80;;;6.51;97.31;96420.44;5055893;28;20456;-69
2024/02/12 06:26:42;;;;;;;1.60;1.50;;;7.20;94.00;;;6.62;96.27;96429.59;5023346;28;20469;-69
2024/02/12 06:29:10;;;;;;;2.00;1.37;;;7.30;93.80;;;6.76;95.24;96428.34;5034608;28;20437;-72
2024/02/12 06:31:45;;;;;;;1.40;1.30;;;7.30;93.60;;;6.68;94.94;96428.66;5042621;28;20552;-67
2024/02/12 06:34:21;;;;;;;2.43;1.50;;;7.30;92.80;;;6.64;95.22;96432.84;5043768;28;20971;-67
2024/02/12 06:36:49;;;;;;;4.07;1.47;;;7.30;93.00;;;6.72;95.43;96434.38;5061513;28;20450;-67
2024/02/12 06:39:16;;;;;;;2.80;1.40;;;7.30;93.10;;;6.82;94.66;96441.88;5053452;28;20459;-68
2024/02/12 06:41:45;;;;;;;2.00;1.33;;;7.40;92.80;;;6.62;96.06;96454.53;5021332;28;20480;-68
2024/02/12 06:44:15;;;;;;;3.03;2.20;;;7.30;93.00;;;6.69;95.82;96449.06;5054547;28;20468;-68
2024/02/12 06:46:45;;;;;;;1.83;1.70;;;7.40;93.60;;;6.71;95.99;96435.44;5041468;28;20460;-69
2024/02/12 06:49:15;;;;;;;7.53;1.63;;;7.30;93.70;;;6.73;95.17;96441.38;5049577;28;20883;-67
2024/02/12 06:51:47;;;;;;;3.73;2.03;;;7.40;93.20;;;6.74;96.32;96456.44;5033330;28;20452;-69
2024/02/12 06:54:15;;;;;;;2.97;2.43;;;7.40;93.70;;;6.90;95.53;96449.59;5043253;28;20551;-68
2024/02/12 06:56:42;;;;;;;2.40;1.70;;;7.40;93.60;;;6.74;95.74;96459.94;5029179;28;20520;-72
2024/02/12 06:59:10;;;;;;;2.10;1.90;;;7.40;93.30;;;6.75;96.74;96466.13;5052021;28;20910;-66
2024/02/12 07:01:38;;;;;;;2.70;1.90;;;7.40;93.70;;;6.62;97.38;96459.91;5054017;28;20567;-73
2024/02/12 07:04:05;;;;;;;2.47;2.23;;;7.40;93.80;;;6.61;98.48;96462.84;5035356;28;20605;-69
2024/02/12 07:06:34;;;;;;;4.10;2.20;;;7.30;94.40;;;6.16;99.51;96400.50;5045675;28;20491;-70
2024/02/12 07:09:03;;;;;;;2.20;2.10;;;7.30;95.60;;;6.26;100.00;96471.53;5039271;28;20462;-73
2024/02/12 07:11:30;;;;;;;2.27;2.00;;;7.10;96.00;;;6.36;100.00;96471.81;5046736;28;20556;-73
2024/02/12 07:13:57;;;;;;;2.47;2.27;;;7.10;97.10;;;6.35;100.00;96476.34;5066661;28;20456;-74
2024/02/12 07:16:29;;;;;;;2.67;2.17;;;7.10;97.20;;;6.30;100.00;96480.78;5056785;28;20533;-75
2024/02/12 07:18:57;;;;;;;2.63;2.20;;;7.10;97.00;;;6.49;100.00;96486.91;5055716;28;20468;-75
2024/02/12 07:21:24;;;;;;;2.60;2.40;;;7.10;97.40;;;6.65;100.00;96486.28;5064005;28;20565;-73
2024/02/12 07:23:52;;;;;;;2.40;2.17;;;7.20;97.20;;;6.49;99.29;96468.97;5062298;28;20457;-72
2024/02/12 07:26:21;;;;;;;3.03;2.40;;;7.30;96.10;;;6.79;98.60;96496.84;5065504;28;20459;-74
2024/02/12 07:28:50;;;;;;;2.73;2.37;;;7.40;95.80;;;6.85;97.02;96506.69;5069137;28;20517;-73
2024/02/12 07:31:17;;;;;;;2.10;1.90;;;7.50;94.30;;;6.86;97.85;96502.94;5072482;28;20452;-76
2024/02/12 07:33:45;;;;;;;2.17;2.00;;;7.50;94.40;;;6.84;99.42;96512.25;5046068;28;20452;-70
2024/02/12 07:36:12;;;;;;;1.73;1.63;;;7.50;95.40;;;7.03;96.76;96513.03;5049459;28;20464;-71
2024/02/12 07:38:40;;;;;;;3.03;1.80;;;7.60;94.50;;;7.05;96.77;96506.38;5066479;28;20456;-72
2024/02/12 07:41:08;;;;;;;2.07;1.87;;;7.70;94.20;;;7.12;95.63;96505.44;5068982;28;20475;-70
2024/02/12 07:43:38;;;;;;;2.90;2.37;;;7.80;93.20;;;7.25;95.24;96509.78;5064427;28;20509;-71
2024/02/12 07:46:06;;;;;;;2.20;1.70;;;7.90;93.30;;;7.15;95.23;96511.19;5043352;28;20463;-70
2024/02/12 07:48:33;;;;;;;2.40;1.90;;;7.80;92.80;;;6.75;94.23;96450.84;5066911;28;20480;-71
2024/02/12 07:51:00;;;;;;;2.20;2.00;;;7.80;92.80;;;7.37;93.84;96519.53;5063688;28;20456;-71
2024/02/12 07:53:29;;;;;;;2.73;2.53;;;8.00;92.80;;;7.44;93.22;96518.59;5065617;28;20594;-72
2024/02/12 07:55:56;;;;;;;2.53;2.30;;;8.00;92.10;;;7.14;95.40;96536.41;5051276;28;21028;-71
2024/02/12 07:58:24;;;;;;;2.70;2.50;;;7.90;92.30;;;7.24;94.15;96535.84;5046929;28;20640;-70
2024/02/12 08:00:53;;;;;;;3.03;2.53;;;7.90;92.30;;;7.40;93.94;96528.97;5064338;28;20448;-73
2024/02/12 08:03:21;;;;;;;2.20;2.00;;;8.00;92.60;;;7.54;92.47;96539.50;5046402;28;20559;-73
2024/02/12 08:05:49;;;;;;;3.10;2.80;;;8.10;92.10;;;7.55;92.51;96539.28;5069003;28;20467;-73
2024/02/12 08:08:17;;;;;;;3.00;2.70;;;8.10;92.20;;;7.58;91.08;96541.50;5068050;28;20502;-72
2024/02/12 08:10:45;;;;;;;2.67;2.47;;;8.20;91.10;;;7.49;92.03;96534.81;5058941;28;20506;-73
2024/02/12 08:13:13;;;;;;;3.03;2.83;;;8.20;91.30;;;7.84;90.60;96552.03;5041576;28;20452;-72
2024/02/12 08:15:41;;;;;;;2.53;2.33;;;8.40;91.30;;;7.53;90.77;96544.09;5045754;28;20440;-72
2024/02/12 08:18:10;;;;;;;3.43;3.00;;;8.30;90.80;;;7.68;91.30;96556.25;5062099;28;20959;-72
2024/02/12 08:20:38;;;;;;;3.50;2.90;;;8.30;90.90;;;7.63;91.00;96551.56;5059040;28;20801;-73
2024/02/12 08:23:06;;;;;;;3.00;2.80;;;8.30;90.90;;;7.37;90.91;96549.09;5054048;28;21428;-71
2024/02/12 08:25:33;;;;;;;2.83;2.50;;;8.30;90.70;;;7.55;91.38;96555.41;5063108;28;20463;-72
2024/02/12 08:28:01;;;;;;;6.00;3.20;;;8.30;91.00;;;7.68;90.48;96553.56;5060634;28;20457;-70
2024/02/12 08:30:28;;;;;;;3.80;2.80;;;8.40;90.90;;;7.99;89.84;96568.50;5065825;28;20845;-69
2024/02/12 08:32:55;;;;;;;2.83;2.63;;;8.50;90.80;;;7.97;89.76;96565.25;5046770;28;20460;-70
2024/02/12 08:35:23;;;;;;;3.10;2.90;;;8.60;90.70;;;7.98;89.82;96577.63;5040468;28;20455;-71
2024/02/12 08:37:50;;;;;;;2.50;2.30;;;8.60;90.40;;;7.85;90.44;96584.06;5066394;28;20966;-71
2024/02/12 08:40:18;;;;;;;3.10;2.80;;;8.50;90.50;;;7.56;90.34;96575.88;5052155;28;21032;-72
2024/02/12 08:42:47;;;;;;;3.83;3.40;;;8.40;90.50;;;7.46;92.01;96591.72;5066875;28;20490;-70
2024/02/12 08:45:14;;;;;;;4.30;3.43;;;8.30;90.80;;;7.47;92.11;96588.00;5061134;28;20479;-69
2024/02/12 08:47:42;;;;;;;4.33;3.27;;;8.20;91.00;;;7.69;91.13;96587.47;5058600;28;20535;-70
2024/02/12 08:50:11;;;;;;;4.60;3.10;;;8.30;91.00;;;7.74;91.49;96571.44;5066764;28;20541;-82
2024/02/12 08:52:43;;;;;;;3.60;2.80;;;8.40;91.20;;;7.60;90.82;96593.16;5035135;28;20479;-69
2024/02/12 08:55:11;;;;;;;3.53;3.23;;;8.30;90.80;;;7.61;92.14;96600.16;5057974;28;20972;-69
2024/02/12 08:57:41;;;;;;;3.83;3.53;;;8.30;90.90;;;7.61;90.73;96600.16;5058037;28;21047;-70
2024/02/12 09:00:11;;;;;;;5.60;4.13;;;8.30;90.90;;;7.55;91.27;96601.09;5046197;28;20467;-70
2024/02/12 09:02:38;;;;;;;3.80;3.23;;;8.30;90.80;;;7.73;90.09;96607.44;5045841;28;20976;-67
2024/02/12 09:05:10;;;;;;;4.43;3.23;;;8.30;90.90;;;7.83;89.10;96596.09;5042810;28;20449;-69
2024/02/12 09:07:40;;;;;;;5.73;3.33;;;8.50;90.30;;;8.06;87.84;96606.06;5058113;28;20452;-69
2024/02/12 09:10:08;;;;;;;3.60;3.27;;;8.60;90.30;;;8.06;88.19;96614.13;5045673;28;20504;-70
2024/02/12 09:12:37;;;;;;;3.83;3.53;;;8.70;90.10;;;8.07;88.02;96613.91;5058918;28;20453;-70
2024/02/12 09:15:08;;;;;;;3.37;3.07;;;8.70;89.90;;;8.17;86.94;96623.25;5040988;28;20502;-70
2024/02/12 09:17:35;;;;;;;4.97;2.37;;;8.80;89.20;;;8.06;86.26;96631.09;5062752;28;20811;-70
2024/02/12 09:20:04;;;;;;;4.43;2.83;;;8.80;88.70;;;7.80;87.40;96626.97;5062245;28;20457;-76
2024/02/12 09:22:33;;;;;;;3.60;3.30;;;8.70;88.70;;;7.82;87.07;96641.03;5058295;28;20535;-71
2024/02/12 09:25:03;;;;;;;3.20;2.90;;;8.50;88.70;;;7.60;87.77;96635.38;5059389;28;20460;-69
2024/02/12 09:27:31;;;;;;;3.57;3.00;;;8.50;88.70;;;7.32;87.99;96601.88;5044142;28;21275;-69
2024/02/12 09:29:59;;;;;;;3.70;2.80;;;8.40;88.90;;;7.69;87.65;96649.28;5063580;28;20464;-70
2024/02/12 09:32:27;;;;;;;3.60;3.30;;;8.40;89.40;;;7.63;88.61;96645.66;5060097;28;20455;-70
2024/02/12 09:34:55;;;;;;;4.60;2.73;;;8.30;89.60;;;7.84;87.98;96646.97;5057881;28;23678;-69
2024/02/12 09:37:29;;;;;;;4.00;2.83;;;8.40;89.50;;;7.97;87.99;96645.13;5056794;28;21228;-70
2024/02/12 09:39:57;;;;;;;2.80;2.60;;;8.50;89.90;;;8.11;86.35;96645.72;5042754;28;20447;-69
2024/02/12 09:42:28;;;;;;;3.03;2.73;;;8.60;89.00;;;8.12;86.07;96647.34;5060691;28;20526;-69
2024/02/12 09:44:59;;;;;;;3.70;2.60;;;8.70;88.40;;;7.92;85.88;96660.06;5056408;28;20460;-68
2024/02/12 09:47:28;;;;;;;5.40;3.00;;;8.70;87.80;;;7.95;85.84;96658.78;5038377;28;20828;-71
2024/02/12 09:49:57;;;;;;;2.93;2.60;;;8.70;88.10;;;7.77;87.74;96655.16;5060182;28;20462;-68
2024/02/12 09:52:28;;;;;;;3.30;2.40;;;8.50;88.70;;;7.94;86.79;96657.16;5039503;28;20467;-69
2024/02/12 09:54:56;;;;;;;4.70;3.20;;;8.60;88.40;;;8.10;87.02;96658.34;5052096;28;20470;-69
2024/02/12 09:57:26;;;;;;;3.10;2.80;;;8.70;88.80;;;8.00;86.08;96666.97;5033871;28;20847;-70
2024/02/12 09:59:57;;;;;;;2.60;2.37;;;8.70;88.40;;;7.82;86.88;96664.38;5061847;28;20454;-71
2024/02/12 10:02:25;;;;;;;3.00;2.70;;;8.70;88.20;;;8.00;86.94;96672.34;5039733;28;21347;-69
2024/02/12 10:04:54;;;;;;;3.50;3.00;;;8.70;88.40;;;7.89;85.83;96667.81;5063005;28;20543;-71
2024/02/12 10:07:24;;;;;;;3.47;3.17;;;8.70;88.00;;;8.02;86.33;96674.84;5062140;28;20598;-69
2024/02/12 10:09:51;;;;;;;3.47;2.83;;;8.70;88.30;;;7.98;85.66;96636.00;5045594;28;20440;-69
2024/02/12 10:12:19;;;;;;;4.17;3.00;;;8.80;88.30;;;8.32;85.63;96673.91;5025057;28;20452;-69
2024/02/12 10:14:49;;;;;;;4.73;3.43;;;8.90;88.20;;;8.13;86.46;96675.88;5044847;28;20453;-70
2024/02/12 10:17:22;;;;;;;3.43;2.97;;;8.80;88.30;;;8.22;86.29;96688.75;5040962;28;20605;-68
2024/02/12 10:19:50;;;;;;;3.63;3.30;;;8.80;88.10;;;8.05;86.25;96690.50;5059006;28;20467;-71
2024/02/12 10:22:18;;;;;;;3.20;2.90;;;8.80;87.80;;;7.82;86.40;96685.91;5045477;28;20886;-70
2024/02/12 10:24:47;;;;;;;5.30;3.33;;;8.70;87.90;;;7.60;88.86;96695.31;5057128;28;20469;-71
2024/02/12 10:27:17;;;;;;;4.60;3.43;;;8.50;88.50;;;7.41;89.81;96683.78;5059551;28;20468;-71
2024/02/12 10:29:44;;;;;;;5.40;4.43;;;8.30;89.40;;;7.55;90.95;96691.66;5061126;28;20460;-70
2024/02/12 10:32:13;;;;;;;5.37;4.27;;;8.30;90.50;;;7.47;90.45;96682.88;5054191;28;20464;-71
2024/02/12 10:34:44;;;;;;;4.50;3.70;;;8.30;90.70;;;7.62;91.75;96695.88;5039778;28;20979;-71
2024/02/12 10:37:11;;;;;;;7.00;3.83;;;8.30;90.90;;;7.45;90.22;96690.34;5062105;28;20448;-70
2024/02/12 10:39:40;;;;;;;5.23;3.77;;;8.20;90.30;;;7.47;90.41;96695.47;5040262;28;20822;-71
2024/02/12 10:42:10;;;;;;;4.47;4.07;;;8.20;90.20;;;7.68;89.23;96696.03;5063565;28;20483;-69
2024/02/12 10:44:39;;;;;;;6.60;4.70;;;8.30;90.20;;;8.11;88.84;96711.09;5039321;28;20535;-72
2024/02/12 10:47:09;;;;;;;5.73;4.47;;;8.60;90.40;;;7.86;87.22;96708.59;5038549;28;21120;-70
2024/02/12 10:49:40;;;;;;;11.10;5.37;;;8.60;88.30;;;7.98;85.02;96708.63;5040171;28;20453;-70
2024/02/12 10:52:09;;;;;;;5.20;4.43;;;8.70;88.00;;;8.04;85.50;96710.38;5058469;28;20475;-72
2024/02/12 10:54:36;;;;;;;7.60;4.63;;;8.70;87.80;;;8.02;84.46;96701.72;5049818;28;21685;-71